^^

Nearby METAR Reports

 

EGNV - Tees-Side, United Kingdom
Distance from station: SW 7mi, 11km
Updated: 25/06/2021 08:20
Light rain, Mostly cloudy
Light rain, Mostly cloudy
 Wind from N
Wind: N 14 mph , 22 km/h
Temperature: 11°C
Dew Point: 10°C
Humidity: 94%
Barometer: 1016 hPa
Summary: Light rain
Clouds: Mostly cloudy
Visibility: 3 miles , 5 km
Cloud details: Partly cloudy 244 m
Mostly cloudy 549 m
2021/06/25 07:20 EGNV 250720Z 35012KT 5000 -RA SCT008 BKN018 11/10 Q1016
EGXE - Leeming Raf, United Kingdom
Distance from station: SSW 23mi, 37km
Updated: 25/06/2021 07:50
Rain, Overcast
Rain, Overcast
 Wind from N
Wind: N 15 mph , 24 km/h
Temperature: 11°C
Dew Point: 11°C
Humidity: 100%
Barometer: 1016 hPa
Summary: Rain
Clouds: Overcast
Visibility: 4 miles , 7 km
Cloud details: Overcast 213 m
2021/06/25 06:50 EGXE 250650Z 36013KT 7000 RA OVC007 11/11 Q1016 GRN TEMPO 4000 -RADZ BKN006 RMK GRN TEMPO YLO1
 
EGXZ - Topcliffe Raf, United Kingdom
Distance from station: S 27mi, 43km
Updated: 25/06/2021 07:50
Light rain, Mostly cloudy
Light rain, Mostly cloudy
 Wind from N
Wind: N 14 mph , 22 km/h
Temperature: 12°C
Dew Point: 11°C
Humidity: 94%
Barometer: 1016 hPa
Summary: Light rain
Clouds: Mostly cloudy
Visibility: 6 miles , 10 km
Cloud details: Mostly cloudy 183 m
2021/06/25 06:50 EGXZ 250650Z AUTO 36012KT 9999 -RA BKN006/// 12/11 Q1016
EGNT - Newcastle, United Kingdom
Distance from station: NNW 34mi, 54km
Updated: 25/06/2021 08:20
Mostly cloudy
Mostly cloudy
 Wind from N
Wind: N 17 mph , 28 km/h
Temperature: 10°C
Wind Chill: 7°C
Dew Point: 9°C
Humidity: 94%
Barometer: 1017 hPa
Clouds: Mostly cloudy
Visibility: 4 miles , 7 km
Cloud details: Mostly cloudy 183 m
2021/06/25 07:20 EGNT 250720Z 36015KT 7000 BKN006 10/09 Q1017
 
EGXU - Linton-On-Ouse R, United Kingdom
Distance from station: S 37mi, 60km
Updated: 25/06/2021 07:50
Light rain, Partly cloudy
Light rain, Partly cloudy
 Wind from NNW
Wind: NNW 12 mph , 19 km/h
Temperature: 12°C
Dew Point: 12°C
Humidity: 100%
Barometer: 1015 hPa
Summary: Light rain
Clouds: Partly cloudy
Visibility: 6 miles , 10 km
Cloud details: Mostly cloudy 457 m
Partly cloudy 1128 m
2021/06/25 06:50 EGXU 250650Z AUTO 33010KT 9999 -RA BKN015/// SCT037/// 12/12 Q1015
EGNM - Leeds And Bradfo, United Kingdom
Distance from station: SSW 52mi, 83km
Updated: 25/06/2021 08:20
Light rain, Mist, Mostly cloudy
Light rain, Mist, Mostly cloudy
 Wind from N
Wind: N 16 mph , 26 km/h
Temperature: 11°C
Dew Point: 10°C
Humidity: 94%
Barometer: 1016 hPa
Summary: Light rain, Mist
Clouds: Mostly cloudy
Visibility: 1 mile , 2 km
Cloud details: Partly cloudy 61 m
Mostly cloudy 91 m
2021/06/25 07:20 EGNM 250720Z 35014KT 2000 -RA BR SCT002 BKN003 11/10 Q1016
 
EGOM - Spadeadam, United Kingdom
Distance from station: WNW 58mi, 94km
Updated: 21/06/2021 15:50
NOT Current
Mostly cloudy
Mostly cloudy
 Wind from NNE
Wind: NNE 8 mph , 13 km/h
Temperature: 13°C
Dew Point: 5°C
Humidity: 59%
Barometer: 1018 hPa
Clouds: Mostly cloudy
Visibility: 6 miles , 10 km
Cloud details: Few Clouds 1067 m
Mostly cloudy 1219 m
2021/06/21 14:50 EGOM 211450Z AUTO 03007KT 9999 FEW035/// BKN040/// 13/05 Q1018
EGCN - Doncaster Sheffi, United Kingdom
Distance from station: S 77mi, 124km
Updated: 25/06/2021 08:20
Light rain, Drizzle, Mostly cloudy
Light rain, Drizzle, Mostly cloudy
 Wind from NW
Wind: NW 12 mph , 19 km/h
Temperature: 13°C
Dew Point: 12°C
Humidity: 94%
Barometer: 1016 hPa
Summary: Light rain, Drizzle
Clouds: Mostly cloudy
Visibility: 2 miles , 3 km
Cloud details: Few Clouds 91 m
Mostly cloudy 213 m
2021/06/25 07:20 EGCN 250720Z 31010KT 3000 -RADZ FEW003 BKN007 13/12 Q1016
 
EGNJ - Humberside, United Kingdom
Distance from station: SSE 80mi, 129km
Updated: 25/06/2021 07:50
Rain, Mostly cloudy
Rain, Mostly cloudy
 Wind from NNE
Wind: NNE 12 mph , 19 km/h
Temperature: 15°C
Dew Point: 15°C
Humidity: 100%
Barometer: 1014 hPa
Summary: Rain
Clouds: Mostly cloudy
Visibility: 2 miles , 4 km
Cloud details: Partly cloudy 30 m
Mostly cloudy 91 m
2021/06/25 06:50 EGNJ 250650Z 02010KT 3500 RA SCT001 BKN003 15/15 Q1014
EGNH - Blackpool Airpor, United Kingdom
Distance from station: SW 90mi, 145km
Updated: 25/06/2021 08:20
Light rain, Mostly cloudy
Light rain, Mostly cloudy
 Wind from S
Wind: S 5 mph , 7 km/h
Temperature: 13°C
Dew Point: 13°C
Humidity: 100%
Barometer: 1016 hPa
Summary: Light rain
Clouds: Mostly cloudy
Visibility: 5 miles , 8 km
Cloud details: Few Clouds 30 m
Partly cloudy 122 m
Mostly cloudy 274 m
2021/06/25 07:20 EGNH 250720Z 19004KT 150V220 8000 3000N -RA FEW001 SCT004 BKN009 13/13 Q1016 RERA
 
EGXP - Scampton Raf, United Kingdom
Distance from station: SSE 94mi, 151km
Updated: 25/06/2021 07:50
Mostly cloudy
Mostly cloudy
 Wind from W
Wind: W 10 mph , 17 km/h
Temperature: 14°C
Dew Point: 13°C
Humidity: 94%
Barometer: 1014 hPa
Clouds: Mostly cloudy
Visibility: 6 miles , 10 km
Cloud details: Mostly cloudy 152 m
Partly cloudy 366 m
Mostly cloudy 518 m
2021/06/25 06:50 EGXP 250650Z AUTO 28009KT 9999 // BKN005/// SCT012/// BKN017/// 14/13 Q1014
EGCC - Manchester Intl, United Kingdom
Distance from station: SSW 94mi, 152km
Updated: 25/06/2021 08:20
Overcast
Overcast
 Wind from W
Wind: W 5 mph , 7 km/h
Temperature: 12°C
Dew Point: 10°C
Humidity: 88%
Barometer: 1016 hPa
Clouds: Overcast
Visibility: 6 miles , 10 km
Cloud details: Overcast 366 m
2021/06/25 07:20 EGCC 250720Z AUTO 28004KT 9999 OVC012 12/10 Q1016